createdAt,value
2022-08-18T00:02:07.347Z,26.48
2022-08-18T00:04:48.571Z,26.55
2022-08-18T00:07:23.136Z,25.81
2022-08-18T00:09:50.817Z,25.13
2022-08-18T00:12:37.004Z,24.63
2022-08-18T00:15:07.002Z,24.20
2022-08-18T00:17:35.705Z,24.08
2022-08-18T00:20:08.283Z,24.68
2022-08-18T00:22:36.118Z,25.09
2022-08-18T00:25:03.807Z,25.19
2022-08-18T00:27:31.825Z,25.32
2022-08-18T00:30:01.832Z,25.51
2022-08-18T00:32:35.645Z,25.79
2022-08-18T00:35:13.133Z,25.77
2022-08-18T00:37:41.608Z,25.16
2022-08-18T00:40:12.661Z,24.54
2022-08-18T00:43:07.775Z,24.03
2022-08-18T00:45:39.109Z,23.91
2022-08-18T00:48:08.004Z,24.47
2022-08-18T00:50:42.523Z,24.92
2022-08-18T00:53:18.081Z,25.09
2022-08-18T00:55:53.690Z,25.20
2022-08-18T00:58:31.794Z,25.24
2022-08-18T01:01:06.310Z,25.23
2022-08-18T01:03:39.106Z,25.18
2022-08-18T01:06:15.701Z,25.17
2022-08-18T01:08:42.783Z,25.45
2022-08-18T01:11:10.122Z,25.66
2022-08-18T01:13:41.241Z,25.09
2022-08-18T01:16:27.543Z,24.43
2022-08-18T01:19:13.237Z,23.83
2022-08-18T01:21:51.547Z,23.73
2022-08-18T01:24:47.009Z,24.53
2022-08-18T01:27:17.922Z,24.76
2022-08-18T01:29:49.862Z,24.71
2022-08-18T01:32:22.855Z,24.83
2022-08-18T01:34:52.006Z,24.89
2022-08-18T01:37:22.576Z,25.02
2022-08-18T01:41:11.211Z,25.14
2022-08-18T01:42:37.499Z,25.27
2022-08-18T01:45:07.578Z,24.76
2022-08-18T01:47:48.057Z,24.16
2022-08-18T01:50:16.728Z,23.66
2022-08-18T01:52:44.071Z,23.51
2022-08-18T01:55:10.987Z,24.07
2022-08-18T01:57:44.424Z,24.91
2022-08-18T02:00:13.963Z,25.70
2022-08-18T02:02:41.689Z,25.80
2022-08-18T02:05:20.543Z,25.15
2022-08-18T02:07:47.593Z,24.39
2022-08-18T02:10:21.002Z,23.83
2022-08-18T02:12:48.618Z,23.41
2022-08-18T02:15:15.472Z,23.38
2022-08-18T02:17:45.125Z,24.37
2022-08-18T02:20:15.010Z,25.23
2022-08-18T02:22:42.950Z,25.57
2022-08-18T02:25:12.136Z,24.94
2022-08-18T02:27:39.401Z,24.20
2022-08-18T02:30:11.162Z,23.62
2022-08-18T02:32:38.106Z,23.48
2022-08-18T02:35:08.983Z,24.48
2022-08-18T02:37:42.253Z,25.40
2022-08-18T02:40:11.907Z,25.46
2022-08-18T02:42:45.428Z,24.72
2022-08-18T02:45:13.820Z,24.02
2022-08-18T02:47:40.770Z,23.47
2022-08-18T02:50:11.814Z,23.36
2022-08-18T02:52:40.429Z,24.43
2022-08-18T02:55:09.349Z,25.39
2022-08-18T02:57:41.549Z,25.70
2022-08-18T03:00:11.903Z,25.00
2022-08-18T03:02:40.161Z,24.23
2022-08-18T03:05:10.852Z,23.64
2022-08-18T03:07:42.654Z,23.41
2022-08-18T03:10:33.330Z,24.21
2022-08-18T03:12:57.138Z,25.23
2022-08-18T03:15:23.851Z,25.56
2022-08-18T03:17:53.648Z,24.95
2022-08-18T03:20:29.976Z,24.22
2022-08-18T03:22:59.269Z,23.61
2022-08-18T03:25:26.043Z,23.46
2022-08-18T03:27:53.148Z,24.39
2022-08-18T03:30:20.285Z,25.29
2022-08-18T03:32:47.329Z,25.63
2022-08-18T03:35:14.383Z,25.00
2022-08-18T03:37:41.581Z,24.29
2022-08-18T03:40:10.544Z,23.72
2022-08-18T03:42:37.986Z,23.27
2022-08-18T03:45:13.062Z,23.22
2022-08-18T03:47:45.354Z,24.34
2022-08-18T03:50:13.947Z,25.20
2022-08-18T03:52:41.569Z,25.48
2022-08-18T03:55:08.958Z,24.85
2022-08-18T03:57:39.037Z,24.12
2022-08-18T04:00:09.310Z,23.56
2022-08-18T04:02:36.173Z,23.13
2022-08-18T04:05:05.430Z,23.20
2022-08-18T04:07:32.591Z,24.47
2022-08-18T04:09:59.982Z,25.44
2022-08-18T04:12:26.974Z,25.71
2022-08-18T04:14:54.045Z,25.02
2022-08-18T04:17:24.701Z,24.24
2022-08-18T04:19:56.364Z,23.66
2022-08-18T04:22:26.055Z,23.19
2022-08-18T04:25:00.494Z,23.20
2022-08-18T04:27:29.911Z,24.45
2022-08-18T04:29:57.200Z,25.36
2022-08-18T04:32:30.254Z,25.65
2022-08-18T04:34:58.522Z,25.01
2022-08-18T04:37:32.437Z,24.27
2022-08-18T04:40:02.183Z,23.75
2022-08-18T04:42:29.566Z,23.66
2022-08-18T04:44:57.558Z,24.74
2022-08-18T04:47:24.507Z,25.61
2022-08-18T04:49:51.560Z,25.82
2022-08-18T04:52:41.582Z,25.23
2022-08-18T04:55:10.743Z,24.52
2022-08-18T04:57:38.940Z,24.07
2022-08-18T05:00:14.271Z,24.03
2022-08-18T05:02:43.935Z,25.18
2022-08-18T05:05:11.400Z,26.19
2022-08-18T05:07:44.359Z,26.58
2022-08-18T05:10:12.392Z,25.98
2022-08-18T05:12:42.911Z,25.33
2022-08-18T05:15:10.156Z,24.82
2022-08-18T05:17:39.359Z,24.46
2022-08-18T05:20:09.078Z,24.44
2022-08-18T05:22:40.262Z,25.53
2022-08-18T05:25:11.858Z,26.65
2022-08-18T05:27:43.142Z,27.06
2022-08-18T05:30:11.526Z,26.49
2022-08-18T05:32:49.288Z,25.85
2022-08-18T05:35:33.042Z,25.36
2022-08-18T05:38:32.383Z,25.04
2022-08-18T05:41:08.575Z,24.80
2022-08-18T05:43:52.109Z,24.95
2022-08-18T05:46:30.760Z,26.10
2022-08-18T05:48:58.226Z,26.65
2022-08-18T05:51:32.838Z,26.31
2022-08-18T05:54:23.123Z,25.82
2022-08-18T05:56:54.232Z,25.40
2022-08-18T05:59:33.438Z,25.15
2022-08-18T06:02:11.002Z,24.93
2022-08-18T06:04:42.861Z,25.12
2022-08-18T06:07:17.277Z,26.25
2022-08-18T06:09:51.498Z,27.20
2022-08-18T06:12:33.285Z,27.55
2022-08-18T06:15:16.401Z,27.05
2022-08-18T06:18:12.643Z,26.57
2022-08-18T06:21:09.698Z,26.23
2022-08-18T06:24:04.813Z,26.02
2022-08-18T06:27:10.055Z,25.89
2022-08-18T06:30:07.225Z,25.75
2022-08-18T06:33:11.103Z,25.64
2022-08-18T06:35:48.476Z,25.56
2022-08-18T06:38:48.368Z,25.51
2022-08-18T06:41:41.858Z,25.91
2022-08-18T06:44:19.459Z,27.29
2022-08-18T06:46:56.487Z,28.14
2022-08-18T06:49:37.444Z,27.88
2022-08-18T06:52:25.712Z,27.51
2022-08-18T06:54:56.234Z,27.28
2022-08-18T06:57:28.078Z,27.18
2022-08-18T07:00:08.220Z,27.14
2022-08-18T07:02:56.068Z,27.13
2022-08-18T07:05:30.330Z,27.15
2022-08-18T07:08:30.100Z,27.19
2022-08-18T07:11:13.735Z,27.24
2022-08-18T07:13:44.584Z,27.28
2022-08-18T07:16:54.933Z,27.34
2022-08-18T07:19:29.756Z,27.40
2022-08-18T07:22:14.593Z,27.47
2022-08-18T07:24:54.138Z,27.57
2022-08-18T07:27:42.619Z,27.66
2022-08-18T07:30:29.321Z,27.75
2022-08-18T07:33:05.971Z,27.85
2022-08-18T07:35:39.517Z,27.95
2022-08-18T07:38:44.104Z,28.05
2022-08-18T07:41:30.000Z,28.18
2022-08-18T07:44:23.026Z,28.34
2022-08-18T07:46:59.673Z,28.49
2022-08-18T07:49:36.417Z,28.61
2022-08-18T07:52:36.239Z,28.73
2022-08-18T07:55:22.189Z,28.90
2022-08-18T07:57:54.540Z,29.04
2022-08-18T08:00:58.611Z,29.17
2022-08-18T08:03:27.846Z,29.34
2022-08-18T08:06:21.732Z,29.48
2022-08-18T08:09:28.320Z,29.65
2022-08-18T08:12:33.089Z,29.81
2022-08-18T08:15:35.847Z,29.92
2022-08-18T08:18:18.398Z,30.06
2022-08-18T08:20:55.225Z,30.18
2022-08-18T08:24:14.949Z,30.30
2022-08-18T08:26:51.608Z,30.42
2022-08-18T08:29:53.358Z,30.51
2022-08-18T08:33:07.496Z,30.63
2022-08-18T08:35:52.580Z,30.77
2022-08-18T08:38:47.775Z,30.87
2022-08-18T08:41:25.948Z,30.98
2022-08-18T08:44:58.016Z,31.08
2022-08-18T08:47:33.169Z,31.20
2022-08-18T08:50:03.391Z,31.28
2022-08-18T08:52:47.281Z,31.37
2022-08-18T08:55:27.082Z,31.46
2022-08-18T08:58:10.824Z,31.56
2022-08-18T09:00:42.264Z,31.66
2022-08-18T09:03:32.308Z,31.74
2022-08-18T09:06:00.568Z,31.84
2022-08-18T09:08:32.511Z,31.91
2022-08-18T09:11:18.755Z,31.97
2022-08-18T09:14:02.293Z,32.05
2022-08-18T09:17:01.007Z,32.16
2022-08-18T09:19:45.469Z,32.29
2022-08-18T09:22:17.425Z,32.41
2022-08-18T09:24:53.534Z,32.50
2022-08-18T09:27:31.053Z,32.56
2022-08-18T09:30:02.234Z,32.63
2022-08-18T09:32:42.930Z,32.68
2022-08-18T09:35:24.650Z,32.75
2022-08-18T09:38:20.343Z,32.81
2022-08-18T09:41:11.164Z,32.86
2022-08-18T09:44:09.768Z,32.90
2022-08-18T09:46:50.636Z,32.99
2022-08-18T09:49:30.378Z,33.03
2022-08-18T09:52:24.307Z,33.09
2022-08-18T09:54:53.975Z,33.12
2022-08-18T09:57:50.600Z,33.14
2022-08-18T10:00:31.220Z,33.18
2022-08-18T10:03:10.812Z,33.21
2022-08-18T10:05:39.845Z,33.23
2022-08-18T10:08:10.067Z,33.27
2022-08-18T10:11:01.537Z,33.32
2022-08-18T10:14:23.437Z,33.41
2022-08-18T10:17:23.445Z,33.49
2022-08-18T10:19:58.394Z,33.57
2022-08-18T10:22:47.871Z,33.62
2022-08-18T10:25:37.768Z,33.68
2022-08-18T10:28:10.303Z,33.76
2022-08-18T10:30:56.790Z,33.80
2022-08-18T10:33:57.887Z,33.82
2022-08-18T10:36:40.156Z,33.83
2022-08-18T10:39:23.696Z,33.86
2022-08-18T10:42:05.923Z,33.90
2022-08-18T10:44:48.369Z,33.92
2022-08-18T10:47:33.444Z,33.92
2022-08-18T10:50:18.698Z,33.92
2022-08-18T10:56:08.376Z,33.94
2022-08-18T10:58:43.801Z,33.95
2022-08-18T11:01:43.241Z,33.96
2022-08-18T11:04:37.166Z,33.98
2022-08-18T11:07:30.983Z,33.98
2022-08-18T11:10:32.286Z,33.99
2022-08-18T11:13:17.232Z,34.03
2022-08-18T11:16:03.752Z,34.08
2022-08-18T11:18:49.450Z,34.10
2022-08-18T11:21:41.659Z,34.11
2022-08-18T11:24:17.114Z,34.14
2022-08-18T11:26:52.867Z,34.19
2022-08-18T11:29:28.570Z,34.22
2022-08-18T11:32:11.727Z,34.24
2022-08-18T11:34:52.833Z,34.25
2022-08-18T11:37:53.666Z,34.27
2022-08-18T11:43:40.920Z,34.33
2022-08-18T11:46:30.090Z,34.36
2022-08-18T11:49:24.073Z,34.35
2022-08-18T11:52:02.963Z,34.37
2022-08-18T11:54:50.914Z,34.38
2022-08-18T11:57:49.288Z,34.40
2022-08-18T12:00:36.157Z,34.48
2022-08-18T12:03:19.594Z,34.51
2022-08-18T12:09:45.544Z,34.52
2022-08-18T12:12:30.171Z,34.55
2022-08-18T12:15:13.867Z,34.60
2022-08-18T12:17:52.413Z,34.66
2022-08-18T12:20:22.074Z,34.69
2022-08-18T12:22:50.719Z,34.71
2022-08-18T12:25:25.336Z,34.70
2022-08-18T12:27:53.973Z,34.64
2022-08-18T12:30:21.521Z,34.59
2022-08-18T12:32:50.705Z,34.55
2022-08-18T12:38:14.502Z,34.57
2022-08-18T12:40:45.632Z,34.58
2022-08-18T12:43:17.735Z,34.62
2022-08-18T12:46:06.906Z,34.64
2022-08-18T12:48:44.708Z,34.66
2022-08-18T12:51:16.093Z,34.67
2022-08-18T12:53:58.320Z,34.68
2022-08-18T12:56:32.473Z,34.67
2022-08-18T12:59:07.731Z,34.69
2022-08-18T13:01:39.711Z,34.71
2022-08-18T13:04:13.348Z,34.75
2022-08-18T13:07:05.947Z,34.81
2022-08-18T13:09:52.881Z,34.84
2022-08-18T13:12:25.308Z,34.86
2022-08-18T13:14:54.820Z,34.86
2022-08-18T13:17:30.533Z,34.86
2022-08-18T13:20:13.572Z,34.86
2022-08-18T13:23:00.245Z,34.83
2022-08-18T13:25:32.280Z,34.81
2022-08-18T13:28:02.027Z,34.78
2022-08-18T13:30:32.419Z,34.78
2022-08-18T13:33:05.712Z,34.80
2022-08-18T13:35:52.453Z,34.76
2022-08-18T13:38:27.488Z,34.74
2022-08-18T13:40:59.160Z,34.74
2022-08-18T13:43:39.540Z,34.74
2022-08-18T13:46:09.253Z,34.73
2022-08-18T13:48:39.373Z,34.73
2022-08-18T13:51:13.957Z,34.72
2022-08-18T13:53:51.049Z,34.72
2022-08-18T13:56:31.322Z,34.72
2022-08-18T13:58:59.807Z,34.74
2022-08-18T14:01:51.369Z,34.73
2022-08-18T14:04:20.526Z,34.74
2022-08-18T14:06:56.988Z,34.75
2022-08-18T14:09:36.248Z,34.77
2022-08-18T14:12:23.315Z,34.77
2022-08-18T14:14:54.194Z,34.71
2022-08-18T14:17:25.347Z,34.69
2022-08-18T14:20:15.456Z,34.70
2022-08-18T14:23:27.943Z,34.69
2022-08-18T14:26:22.527Z,34.69
2022-08-18T14:28:52.763Z,34.69
2022-08-18T14:31:23.116Z,34.68
2022-08-18T14:33:53.697Z,34.63
2022-08-18T14:36:30.218Z,34.58
2022-08-18T14:39:01.731Z,34.53
2022-08-18T14:41:31.512Z,34.48
2022-08-18T14:44:12.382Z,34.42
2022-08-18T14:46:54.238Z,34.39
2022-08-18T14:49:28.334Z,34.40
2022-08-18T14:51:59.336Z,34.42
2022-08-18T14:54:28.682Z,34.42
2022-08-18T14:57:01.558Z,34.44
2022-08-18T14:59:37.505Z,34.46
2022-08-18T15:02:13.111Z,34.46
2022-08-18T15:04:55.965Z,34.47
2022-08-18T15:07:28.182Z,34.46
2022-08-18T15:10:15.358Z,34.46
2022-08-18T15:12:46.809Z,34.46
2022-08-18T15:15:18.264Z,34.44
2022-08-18T15:17:50.088Z,34.39
2022-08-18T15:20:28.856Z,34.36
2022-08-18T15:23:28.331Z,34.35
2022-08-18T15:25:58.839Z,34.32
2022-08-18T15:28:31.093Z,34.29
2022-08-18T15:31:17.069Z,34.27
2022-08-18T15:33:50.250Z,34.29
2022-08-18T15:36:24.107Z,34.28
2022-08-18T15:39:00.700Z,34.24
2022-08-18T15:41:44.263Z,34.20
2022-08-18T15:44:23.096Z,34.13
2022-08-18T15:46:53.205Z,34.04
2022-08-18T15:49:21.914Z,33.96
2022-08-18T15:51:52.559Z,33.88
2022-08-18T15:54:25.670Z,33.82
2022-08-18T15:56:58.469Z,33.74
2022-08-18T15:59:34.146Z,33.68
2022-08-18T16:02:11.872Z,33.62
2022-08-18T16:04:41.368Z,33.57
2022-08-18T16:07:15.886Z,33.51
2022-08-18T16:09:46.677Z,33.45
2022-08-18T16:12:14.349Z,33.41
2022-08-18T16:14:42.315Z,33.37
2022-08-18T16:17:18.367Z,33.34
2022-08-18T16:19:52.496Z,33.31
2022-08-18T16:22:21.691Z,33.27
2022-08-18T16:24:52.771Z,33.21
2022-08-18T16:27:22.749Z,33.15
2022-08-18T16:29:49.912Z,33.09
2022-08-18T16:32:17.050Z,33.04
2022-08-18T16:34:43.990Z,32.99
2022-08-18T16:37:11.955Z,32.93
2022-08-18T16:39:39.166Z,32.86
2022-08-18T16:42:06.674Z,32.77
2022-08-18T16:44:33.506Z,32.68
2022-08-18T16:47:03.942Z,32.59
2022-08-18T16:49:32.290Z,32.51
2022-08-18T16:52:03.329Z,32.42
2022-08-18T16:54:35.084Z,32.34
2022-08-18T16:57:06.563Z,32.24
2022-08-18T16:59:52.411Z,32.15
2022-08-18T17:02:38.043Z,32.04
2022-08-18T17:05:05.448Z,31.94
2022-08-18T17:07:35.437Z,31.85
2022-08-18T17:10:05.627Z,31.77
2022-08-18T17:12:32.778Z,31.68
2022-08-18T17:14:59.934Z,31.61
2022-08-18T17:17:28.455Z,31.53
2022-08-18T17:19:55.817Z,31.46
2022-08-18T17:22:23.361Z,31.38
2022-08-18T17:24:59.417Z,31.30
2022-08-18T17:27:37.302Z,31.21
2022-08-18T17:30:11.329Z,31.13
2022-08-18T17:32:48.834Z,31.05
2022-08-18T17:35:23.466Z,30.97
2022-08-18T17:38:04.409Z,30.89
2022-08-18T17:40:47.651Z,30.85
2022-08-18T17:43:21.710Z,30.81
2022-08-18T17:45:58.474Z,30.77
2022-08-18T17:48:35.015Z,30.70
2022-08-18T17:51:32.348Z,30.60
2022-08-18T17:54:41.405Z,30.50
2022-08-18T17:57:13.669Z,30.36
2022-08-18T17:59:51.764Z,30.25
2022-08-18T18:02:29.968Z,30.15
2022-08-18T18:05:05.024Z,30.04
2022-08-18T18:07:39.867Z,29.92
2022-08-18T18:10:22.161Z,29.81
2022-08-18T18:13:11.022Z,29.69
2022-08-18T18:15:41.247Z,29.58
2022-08-18T18:18:22.726Z,29.49
2022-08-18T18:21:21.939Z,29.38
2022-08-18T18:24:05.472Z,29.27
2022-08-18T18:26:36.198Z,29.17
2022-08-18T18:29:29.099Z,29.07
2022-08-18T18:32:01.539Z,28.98
2022-08-18T18:34:38.001Z,28.89
2022-08-18T18:37:33.246Z,28.80
2022-08-18T18:40:07.626Z,28.71
2022-08-18T18:42:36.290Z,28.62
2022-08-18T18:45:19.235Z,28.54
2022-08-18T18:48:01.718Z,28.43
2022-08-18T18:50:31.363Z,28.35
2022-08-18T18:53:15.010Z,28.27
2022-08-18T18:56:01.869Z,28.19
2022-08-18T18:58:48.909Z,28.12
2022-08-18T19:01:35.346Z,28.04
2022-08-18T19:04:37.148Z,27.96
2022-08-18T19:07:20.889Z,27.88
2022-08-18T19:10:05.752Z,27.80
2022-08-18T19:12:53.547Z,27.73
2022-08-18T19:15:33.302Z,27.65
2022-08-18T19:18:40.230Z,27.59
2022-08-18T19:22:04.682Z,27.52
2022-08-18T19:24:25.006Z,27.45
2022-08-18T19:26:59.829Z,27.39
2022-08-18T19:29:35.477Z,27.33
2022-08-18T19:32:18.949Z,27.27
2022-08-18T19:34:51.628Z,27.21
2022-08-18T19:37:51.152Z,27.14
2022-08-18T19:40:36.378Z,27.08
2022-08-18T19:43:42.766Z,27.03
2022-08-18T19:46:29.995Z,26.97
2022-08-18T19:49:09.820Z,26.93
2022-08-18T19:51:44.388Z,26.89
2022-08-18T19:54:30.865Z,26.85
2022-08-18T19:57:23.965Z,26.80
2022-08-18T20:00:08.391Z,26.75
2022-08-18T20:02:49.743Z,26.70
2022-08-18T20:05:51.282Z,26.66
2022-08-18T20:08:30.732Z,26.61
2022-08-18T20:11:08.445Z,26.57
2022-08-18T20:13:43.713Z,26.53
2022-08-18T20:16:35.533Z,26.49
2022-08-18T20:19:47.883Z,26.44
2022-08-18T20:22:24.598Z,26.38
2022-08-18T20:25:06.388Z,26.34
2022-08-18T20:27:41.034Z,26.30
2022-08-18T20:30:25.677Z,26.26
2022-08-18T20:33:32.640Z,26.22
2022-08-18T20:36:28.351Z,26.18
2022-08-18T20:38:59.328Z,26.15
2022-08-18T20:41:28.408Z,26.13
2022-08-18T20:44:12.348Z,26.11
2022-08-18T20:47:00.661Z,26.10
2022-08-18T20:49:50.297Z,26.08
2022-08-18T20:52:45.787Z,26.06
2022-08-18T20:55:19.819Z,26.05
2022-08-18T20:57:54.874Z,26.03
2022-08-18T21:00:27.551Z,26.02
2022-08-18T21:02:58.559Z,25.99
2022-08-18T21:05:27.837Z,25.98
2022-08-18T21:08:17.467Z,25.96
2022-08-18T21:11:10.512Z,25.94
2022-08-18T21:13:40.926Z,25.92
2022-08-18T21:16:37.893Z,25.90
2022-08-18T21:19:17.603Z,25.89
2022-08-18T21:21:55.216Z,25.88
2022-08-18T21:24:49.574Z,25.88
2022-08-18T21:27:32.651Z,25.88
2022-08-18T21:30:07.160Z,25.88
2022-08-18T21:32:37.352Z,25.88
2022-08-18T21:35:22.172Z,25.87
2022-08-18T21:38:11.906Z,25.85
2022-08-18T21:40:49.601Z,25.82
2022-08-18T21:43:48.885Z,25.82
2022-08-18T21:46:26.929Z,25.80
2022-08-18T21:48:57.223Z,25.79
2022-08-18T21:51:42.969Z,25.76
2022-08-18T21:54:14.115Z,25.74
2022-08-18T21:56:41.815Z,25.73
2022-08-18T21:59:14.190Z,25.72
2022-08-18T22:01:54.649Z,25.71
2022-08-18T22:04:33.073Z,25.70
2022-08-18T22:07:04.421Z,25.69
2022-08-18T22:10:04.152Z,25.68
2022-08-18T22:12:53.271Z,25.68
2022-08-18T22:15:35.395Z,25.66
2022-08-18T22:18:06.544Z,25.66
2022-08-18T22:20:39.629Z,25.66
2022-08-18T22:23:39.644Z,25.65
2022-08-18T22:26:14.682Z,25.64
2022-08-18T22:29:06.025Z,25.63
2022-08-18T22:31:40.554Z,25.62
2022-08-18T22:34:13.204Z,25.61
2022-08-18T22:36:44.082Z,25.60
2022-08-18T22:39:25.519Z,25.60
2022-08-18T22:41:52.926Z,25.58
2022-08-18T22:44:19.822Z,25.58
2022-08-18T22:46:49.123Z,25.58
2022-08-18T22:49:17.500Z,25.56
2022-08-18T22:51:45.688Z,25.55
2022-08-18T22:54:14.318Z,25.54
2022-08-18T22:56:53.702Z,25.53
2022-08-18T22:59:22.837Z,25.52
2022-08-18T23:01:50.813Z,25.51
2022-08-18T23:04:20.788Z,25.48
2022-08-18T23:06:51.747Z,25.47
2022-08-18T23:09:25.327Z,25.45
2022-08-18T23:11:54.838Z,25.42
2022-08-18T23:14:22.308Z,25.40
2022-08-18T23:16:50.155Z,25.37
2022-08-18T23:19:19.239Z,25.34
2022-08-18T23:21:48.140Z,25.32
2022-08-18T23:24:16.724Z,25.29
2022-08-18T23:26:43.768Z,25.27
2022-08-18T23:29:14.103Z,25.24
2022-08-18T23:31:43.809Z,25.22
2022-08-18T23:34:13.125Z,25.21
2022-08-18T23:36:45.074Z,25.20
2022-08-18T23:39:14.076Z,25.18
2022-08-18T23:41:41.674Z,25.17
2022-08-18T23:44:08.632Z,25.16
2022-08-18T23:46:37.365Z,25.14
2022-08-18T23:49:05.571Z,25.12
2022-08-18T23:51:43.475Z,25.11
2022-08-18T23:54:13.964Z,25.09
2022-08-18T23:56:40.979Z,25.08
2022-08-18T23:59:08.572Z,25.06
